Time;durP1;ratioP1;P1;durP2;ratioP2;P2;SDS_P1;SDS_P2;PMS_P1;PMS_P2;Temp;Humidity;BMP_temperature;BMP_pressure;BME280_temperature;BME280_humidity;BME280_pressure;Samples;Min_cycle;Max_cycle;Signal;HPM_P1;HPM_P2
2022/08/06 00:00:07;;;;;;;1.58;0.70;;;18.30;99.90;;;;;;4995057;28;20192;-71
2022/08/06 00:02:35;;;;;;;5.15;0.90;;;18.30;99.90;;;;;;5003570;28;20190;-72
2022/08/06 00:05:02;;;;;;;1.27;0.93;;;18.30;99.90;;;;;;4991079;28;20219;-72
2022/08/06 00:07:28;;;;;;;3.08;0.65;;;18.20;99.90;;;;;;4989620;28;20190;-72
2022/08/06 00:09:55;;;;;;;1.67;0.98;;;18.20;99.90;;;;;;4994532;28;20207;-72
2022/08/06 00:12:21;;;;;;;1.75;0.68;;;18.20;99.90;;;;;;4989063;28;20206;-72
2022/08/06 00:14:46;;;;;;;1.77;0.70;;;18.20;99.90;;;;;;4993224;28;20369;-69
2022/08/06 00:17:12;;;;;;;1.65;0.73;;;18.10;99.90;;;;;;4998269;28;20198;-69
2022/08/06 00:19:38;;;;;;;1.75;0.77;;;18.10;99.90;;;;;;4993359;28;20260;-70
2022/08/06 00:22:03;;;;;;;1.23;0.70;;;18.10;99.90;;;;;;4990127;28;20215;-70
2022/08/06 00:24:31;;;;;;;1.10;0.70;;;18.10;99.90;;;;;;4994538;28;20223;-71
2022/08/06 00:27:01;;;;;;;1.20;0.70;;;18.10;99.90;;;;;;4997790;28;20199;-72
2022/08/06 00:29:29;;;;;;;3.47;1.00;;;18.00;99.90;;;;;;4994226;28;20178;-70
2022/08/06 00:31:55;;;;;;;0.82;0.70;;;18.10;99.90;;;;;;4994223;28;20196;-70
2022/08/06 00:34:25;;;;;;;1.05;0.80;;;18.00;99.90;;;;;;4999616;28;20176;-70
2022/08/06 00:36:51;;;;;;;1.25;0.80;;;18.00;99.90;;;;;;4995639;28;20218;-70
2022/08/06 00:39:19;;;;;;;2.20;0.88;;;18.00;99.90;;;;;;4989256;28;20208;-69
2022/08/06 00:41:47;;;;;;;0.70;0.65;;;17.90;99.90;;;;;;4995379;28;20188;-69
2022/08/06 00:44:17;;;;;;;1.25;0.77;;;17.90;99.90;;;;;;5000389;28;20211;-70
2022/08/06 00:46:46;;;;;;;1.52;0.80;;;17.80;99.90;;;;;;4995996;28;20186;-72
2022/08/06 00:49:12;;;;;;;3.83;0.90;;;17.80;99.90;;;;;;5002595;28;20186;-70
2022/08/06 00:51:39;;;;;;;2.08;0.80;;;17.70;99.90;;;;;;4997608;28;20318;-70
2022/08/06 00:54:07;;;;;;;3.13;0.70;;;17.70;99.90;;;;;;4997260;28;20185;-70
2022/08/06 00:56:33;;;;;;;1.20;0.88;;;17.60;99.90;;;;;;4991184;28;20180;-71
2022/08/06 00:58:59;;;;;;;1.90;0.98;;;17.50;99.90;;;;;;4997397;28;20234;-70
2022/08/06 01:01:24;;;;;;;1.90;1.00;;;17.50;99.90;;;;;;4994746;28;20187;-70
2022/08/06 01:03:50;;;;;;;2.20;0.80;;;17.40;99.90;;;;;;4992585;28;20207;-70
2022/08/06 01:06:16;;;;;;;2.05;0.90;;;17.40;99.90;;;;;;5000435;28;20188;-71
2022/08/06 01:08:44;;;;;;;1.27;0.70;;;17.30;99.90;;;;;;5001500;28;20190;-71
2022/08/06 01:11:09;;;;;;;1.65;0.88;;;17.30;99.90;;;;;;4996953;28;20193;-70
2022/08/06 01:13:35;;;;;;;1.52;0.82;;;17.30;99.90;;;;;;5004391;28;20213;-70
2022/08/06 01:16:25;;;;;;;2.40;1.10;;;17.20;99.90;;;;;;5000766;28;20199;-70
2022/08/06 01:18:58;;;;;;;1.48;0.80;;;17.20;99.90;;;;;;4990616;28;20218;-70
2022/08/06 01:21:54;;;;;;;1.10;0.80;;;17.10;99.90;;;;;;4991592;28;20282;-71
2022/08/06 01:24:33;;;;;;;3.53;1.10;;;17.10;99.90;;;;;;4993582;28;20277;-71
2022/08/06 01:27:37;;;;;;;1.92;0.70;;;17.00;99.90;;;;;;4998616;28;20217;-70
2022/08/06 01:30:15;;;;;;;3.53;0.90;;;17.00;99.90;;;;;;4998499;28;20186;-70
2022/08/06 01:33:01;;;;;;;2.95;1.10;;;17.00;99.90;;;;;;4989047;28;20179;-71
2022/08/06 01:35:36;;;;;;;2.03;1.00;;;16.90;99.90;;;;;;4999636;28;20268;-71
2022/08/06 01:38:48;;;;;;;1.77;0.90;;;16.80;99.90;;;;;;4999810;28;20171;-71
2022/08/06 01:41:42;;;;;;;2.72;1.05;;;16.80;99.90;;;;;;4997330;28;20201;-71
2022/08/06 01:44:18;;;;;;;1.65;0.85;;;16.70;99.90;;;;;;5001452;28;20228;-71
2022/08/06 01:46:48;;;;;;;2.33;1.10;;;16.70;99.90;;;;;;5001318;28;20193;-70
2022/08/06 01:49:25;;;;;;;2.28;1.00;;;16.70;99.90;;;;;;5002850;28;20177;-70
2022/08/06 01:51:58;;;;;;;2.50;1.00;;;16.60;99.90;;;;;;5002791;28;20191;-70
2022/08/06 01:54:26;;;;;;;1.75;0.95;;;16.60;99.90;;;;;;5004325;28;20195;-71
2022/08/06 01:56:55;;;;;;;2.72;1.00;;;16.60;99.90;;;;;;5003208;28;20214;-72
2022/08/06 01:59:26;;;;;;;1.77;0.90;;;16.50;99.90;;;;;;4997654;28;20332;-71
2022/08/06 02:01:58;;;;;;;1.70;0.82;;;16.50;99.90;;;;;;5004201;28;20198;-71
2022/08/06 02:04:28;;;;;;;1.35;0.90;;;16.50;99.90;;;;;;5003553;28;20231;-71
2022/08/06 02:06:56;;;;;;;1.60;1.00;;;16.40;99.90;;;;;;5004766;28;20175;-71
2022/08/06 02:09:23;;;;;;;1.67;1.02;;;16.40;99.90;;;;;;5001270;28;20201;-71
2022/08/06 02:12:06;;;;;;;1.77;0.98;;;16.40;99.90;;;;;;5000981;28;20206;-71
2022/08/06 02:14:39;;;;;;;1.38;0.90;;;16.30;99.90;;;;;;5007319;28;20199;-71
2022/08/06 02:17:06;;;;;;;1.83;1.08;;;16.30;99.90;;;;;;4996963;28;20190;-71
2022/08/06 02:19:33;;;;;;;1.80;1.00;;;16.20;99.90;;;;;;4990482;28;20199;-72
2022/08/06 02:22:02;;;;;;;2.90;0.80;;;16.20;99.90;;;;;;4987204;28;20263;-71
2022/08/06 02:24:30;;;;;;;4.47;1.23;;;16.20;99.90;;;;;;4991565;28;20212;-71
2022/08/06 02:26:58;;;;;;;1.15;0.85;;;16.10;99.90;;;;;;4995256;28;20183;-72
2022/08/06 02:29:28;;;;;;;1.83;1.10;;;16.10;99.90;;;;;;4989908;28;20171;-72
2022/08/06 02:31:56;;;;;;;3.22;1.08;;;16.10;99.90;;;;;;4993402;28;20168;-71
2022/08/06 02:34:24;;;;;;;1.50;0.88;;;16.00;99.90;;;;;;4991393;28;20254;-71
2022/08/06 02:36:57;;;;;;;2.20;0.90;;;16.00;99.90;;;;;;4999241;28;20180;-71
2022/08/06 02:39:40;;;;;;;1.65;0.80;;;16.00;99.90;;;;;;5001968;28;20307;-71
2022/08/06 02:42:17;;;;;;;1.95;0.85;;;16.00;99.90;;;;;;4998878;28;20207;-71
2022/08/06 02:45:03;;;;;;;2.58;1.00;;;16.00;99.90;;;;;;4995966;28;20207;-71
2022/08/06 02:47:56;;;;;;;1.67;0.98;;;16.00;99.90;;;;;;5002221;28;20287;-71
2022/08/06 02:50:31;;;;;;;1.25;0.82;;;16.00;99.90;;;;;;4992255;28;20183;-71
2022/08/06 02:53:12;;;;;;;2.63;1.00;;;16.00;99.90;;;;;;4998183;28;20202;-71
2022/08/06 02:55:45;;;;;;;2.97;0.93;;;16.00;99.90;;;;;;4999505;28;20323;-71
2022/08/06 02:58:17;;;;;;;3.22;1.10;;;16.00;99.90;;;;;;5000457;28;20255;-71
2022/08/06 03:00:50;;;;;;;1.80;0.90;;;15.90;99.90;;;;;;4998876;28;20171;-71
2022/08/06 03:03:21;;;;;;;2.63;0.90;;;15.90;99.90;;;;;;4992189;28;20199;-71
2022/08/06 03:05:49;;;;;;;1.50;0.82;;;15.90;99.90;;;;;;4992819;28;20203;-72
2022/08/06 03:08:20;;;;;;;2.20;1.00;;;15.90;99.90;;;;;;4997372;28;20176;-71
2022/08/06 03:10:47;;;;;;;2.13;0.90;;;15.90;99.90;;;;;;4999316;28;20163;-71
2022/08/06 03:13:14;;;;;;;2.42;1.00;;;15.80;99.90;;;;;;4994872;28;20216;-71
2022/08/06 03:15:41;;;;;;;1.60;0.90;;;15.80;99.90;;;;;;4996598;28;20188;-71
2022/08/06 03:18:13;;;;;;;4.28;1.05;;;15.80;99.90;;;;;;4996004;28;20176;-71
2022/08/06 03:20:42;;;;;;;2.17;0.93;;;15.80;99.90;;;;;;4998870;28;20168;-70
2022/08/06 03:23:09;;;;;;;1.48;0.95;;;15.80;99.90;;;;;;4998661;28;20191;-71
2022/08/06 03:25:36;;;;;;;1.35;0.80;;;15.80;99.90;;;;;;4996316;28;20194;-70
2022/08/06 03:28:03;;;;;;;2.40;0.90;;;15.80;99.90;;;;;;4993640;28;21148;-71
2022/08/06 03:30:32;;;;;;;3.13;0.95;;;15.80;99.90;;;;;;4998077;28;20211;-71
2022/08/06 03:33:01;;;;;;;2.15;1.05;;;15.70;99.90;;;;;;4997568;28;20187;-71
2022/08/06 03:35:29;;;;;;;2.33;1.00;;;15.70;99.90;;;;;;4993432;28;20171;-71
2022/08/06 03:37:56;;;;;;;4.28;1.02;;;15.70;99.90;;;;;;4998092;28;20336;-71
2022/08/06 03:40:24;;;;;;;1.88;1.17;;;15.60;99.90;;;;;;5000060;28;20247;-71
2022/08/06 03:42:49;;;;;;;3.33;1.10;;;15.60;99.90;;;;;;5001435;28;20173;-71
2022/08/06 03:45:15;;;;;;;1.95;1.00;;;15.50;99.90;;;;;;4996271;28;20208;-72
2022/08/06 03:47:52;;;;;;;3.45;1.10;;;15.50;99.90;;;;;;4997449;28;20179;-71
2022/08/06 03:50:28;;;;;;;3.28;1.20;;;15.40;99.90;;;;;;4995548;28;20198;-70
2022/08/06 03:53:03;;;;;;;1.92;1.00;;;15.30;99.90;;;;;;4997280;28;20249;-70
2022/08/06 03:55:34;;;;;;;2.78;0.95;;;15.20;99.90;;;;;;4995583;28;20195;-71
2022/08/06 03:58:07;;;;;;;2.17;1.10;;;15.20;99.90;;;;;;4995066;28;20199;-70
2022/08/06 04:00:44;;;;;;;3.17;1.05;;;15.10;99.90;;;;;;4996859;28;20176;-70
2022/08/06 04:03:14;;;;;;;1.38;0.88;;;15.10;99.90;;;;;;4994059;28;20202;-70
2022/08/06 04:05:44;;;;;;;1.30;0.88;;;15.00;99.90;;;;;;4985216;28;20179;-71
2022/08/06 04:08:11;;;;;;;1.30;0.88;;;15.00;99.90;;;;;;4994819;28;20196;-70
2022/08/06 04:10:44;;;;;;;1.35;0.90;;;15.00;99.90;;;;;;4993243;28;20187;-71
2022/08/06 04:13:18;;;;;;;2.40;1.35;;;15.00;99.90;;;;;;4991222;28;20191;-70
2022/08/06 04:15:46;;;;;;;3.80;1.10;;;15.00;99.90;;;;;;4990814;28;20179;-71
2022/08/06 04:18:20;;;;;;;2.58;1.00;;;15.00;99.90;;;;;;4992614;28;20204;-70
2022/08/06 04:20:50;;;;;;;1.77;1.00;;;14.90;99.90;;;;;;4996965;28;20175;-71
2022/08/06 04:23:18;;;;;;;5.82;1.10;;;14.90;99.90;;;;;;4988285;28;20199;-71
2022/08/06 04:25:48;;;;;;;1.92;0.90;;;14.80;99.90;;;;;;4994741;28;20897;-70
2022/08/06 04:28:17;;;;;;;3.47;1.20;;;14.70;99.90;;;;;;4994502;28;20183;-70
2022/08/06 04:30:44;;;;;;;1.70;0.90;;;14.70;99.90;;;;;;5012036;28;20167;-70
2022/08/06 04:33:14;;;;;;;1.58;1.00;;;14.60;99.90;;;;;;4995449;28;20210;-70
2022/08/06 04:35:41;;;;;;;1.50;1.02;;;14.60;99.90;;;;;;4996445;28;20222;-71
2022/08/06 04:38:11;;;;;;;2.10;1.10;;;14.60;99.90;;;;;;4989336;28;20183;-71
2022/08/06 04:40:38;;;;;;;1.90;1.00;;;14.50;99.90;;;;;;4984220;28;20261;-71
2022/08/06 04:43:09;;;;;;;2.30;1.13;;;14.50;99.90;;;;;;4996239;28;20273;-71
2022/08/06 04:45:38;;;;;;;1.33;0.90;;;14.50;99.90;;;;;;4993225;28;20207;-71
2022/08/06 04:48:07;;;;;;;3.55;1.13;;;14.50;99.90;;;;;;4994671;28;20171;-70
2022/08/06 04:50:36;;;;;;;1.90;0.90;;;14.50;99.90;;;;;;4995509;28;20242;-71
2022/08/06 04:53:13;;;;;;;3.58;1.30;;;14.50;99.90;;;;;;4993882;28;20195;-71
2022/08/06 04:55:40;;;;;;;2.75;1.35;;;14.50;99.90;;;;;;4983600;28;20243;-71
2022/08/06 04:58:08;;;;;;;2.97;1.20;;;14.50;99.90;;;;;;4984575;28;20183;-70
2022/08/06 05:00:38;;;;;;;2.15;1.13;;;14.50;99.90;;;;;;4993648;28;20259;-73
2022/08/06 05:03:04;;;;;;;3.35;1.40;;;14.50;99.90;;;;;;4992015;28;20200;-72
2022/08/06 05:06:02;;;;;;;4.03;1.13;;;14.50;99.90;;;;;;4994306;28;20305;-68
2022/08/06 05:08:33;;;;;;;1.73;0.90;;;14.50;99.90;;;;;;4982296;28;20227;-68
2022/08/06 05:11:10;;;;;;;3.97;1.25;;;14.50;99.90;;;;;;4989961;28;20243;-68
2022/08/06 05:13:39;;;;;;;2.92;1.20;;;14.50;99.90;;;;;;4985334;28;20210;-67
2022/08/06 05:16:12;;;;;;;1.88;1.10;;;14.60;99.90;;;;;;4988835;28;20191;-68
2022/08/06 05:18:46;;;;;;;1.48;0.95;;;14.60;99.90;;;;;;4992207;28;20191;-68
2022/08/06 05:21:17;;;;;;;4.18;1.30;;;14.60;99.90;;;;;;4983996;28;20233;-69
2022/08/06 05:23:46;;;;;;;2.92;1.30;;;14.60;99.90;;;;;;4988998;28;20226;-68
2022/08/06 05:26:13;;;;;;;1.83;1.10;;;14.60;99.90;;;;;;4978589;28;21585;-68
2022/08/06 05:28:42;;;;;;;3.55;1.48;;;14.70;99.90;;;;;;4977640;28;20172;-70
2022/08/06 05:31:08;;;;;;;2.70;1.10;;;14.70;99.90;;;;;;4982348;28;20188;-67
2022/08/06 05:33:36;;;;;;;3.28;1.63;;;14.80;99.90;;;;;;4979559;28;20211;-69
2022/08/06 05:36:09;;;;;;;3.88;1.33;;;14.80;99.90;;;;;;4982008;28;20280;-69
2022/08/06 05:38:40;;;;;;;2.67;1.30;;;14.80;99.90;;;;;;4978435;28;20196;-70
2022/08/06 05:41:13;;;;;;;2.58;1.38;;;14.90;99.90;;;;;;4981722;28;20267;-71
2022/08/06 05:43:41;;;;;;;2.83;1.45;;;14.90;99.90;;;;;;4980788;28;20200;-69
2022/08/06 05:46:11;;;;;;;2.50;1.42;;;15.00;99.90;;;;;;4989004;28;20195;-70
2022/08/06 05:49:05;;;;;;;3.05;1.50;;;15.10;99.90;;;;;;4982916;28;20238;-69
2022/08/06 05:51:48;;;;;;;3.85;1.60;;;15.10;99.90;;;;;;4983500;28;20287;-70
2022/08/06 05:54:39;;;;;;;3.60;1.35;;;15.20;99.90;;;;;;4984848;28;20278;-70
2022/08/06 05:57:28;;;;;;;3.95;1.70;;;15.20;99.90;;;;;;4983501;28;20194;-70
2022/08/06 06:00:08;;;;;;;3.20;1.27;;;15.30;99.90;;;;;;4983027;28;20224;-70
2022/08/06 06:02:36;;;;;;;4.22;1.45;;;15.30;99.90;;;;;;4984433;28;20584;-70
2022/08/06 06:05:08;;;;;;;2.75;1.67;;;15.40;99.90;;;;;;4981106;28;20216;-69
2022/08/06 06:07:34;;;;;;;2.58;1.42;;;15.40;99.90;;;;;;4980403;28;20202;-69
2022/08/06 06:10:03;;;;;;;3.13;1.67;;;15.50;99.90;;;;;;4983425;28;20179;-70
2022/08/06 06:12:31;;;;;;;2.53;1.58;;;15.50;99.90;;;;;;4996312;28;20272;-69
2022/08/06 06:15:00;;;;;;;5.43;1.55;;;15.60;99.90;;;;;;4982670;28;20243;-69
2022/08/06 06:17:58;;;;;;;2.38;1.65;;;15.60;99.90;;;;;;4982785;28;20260;-70
2022/08/06 06:21:03;;;;;;;3.50;1.80;;;15.70;99.90;;;;;;4981933;28;20191;-70
2022/08/06 06:23:31;;;;;;;5.03;1.73;;;15.70;99.90;;;;;;4976437;28;20226;-71
2022/08/06 06:26:20;;;;;;;2.75;1.70;;;15.80;99.90;;;;;;4981779;28;20172;-70
2022/08/06 06:28:55;;;;;;;3.38;1.65;;;15.80;99.90;;;;;;4984960;28;20172;-70
2022/08/06 06:31:30;;;;;;;4.03;1.70;;;15.90;99.90;;;;;;4989762;28;20196;-71
2022/08/06 06:34:07;;;;;;;3.45;1.80;;;15.90;99.90;;;;;;4986414;28;20577;-70
2022/08/06 06:36:37;;;;;;;2.25;1.60;;;16.00;99.90;;;;;;4986202;28;20203;-70
2022/08/06 06:39:21;;;;;;;2.03;1.52;;;16.00;99.90;;;;;;4983812;28;20176;-70
2022/08/06 06:41:57;;;;;;;3.35;1.63;;;16.10;99.90;;;;;;4979444;28;20197;-71
2022/08/06 06:44:37;;;;;;;2.33;1.50;;;16.20;99.90;;;;;;4978884;28;20222;-71
2022/08/06 06:47:17;;;;;;;3.97;1.90;;;16.20;99.90;;;;;;4996206;28;20180;-71
2022/08/06 06:50:01;;;;;;;3.42;1.63;;;16.30;99.90;;;;;;4980352;28;20210;-70
2022/08/06 06:52:33;;;;;;;2.63;1.77;;;16.30;99.90;;;;;;4978439;28;20266;-71
2022/08/06 06:55:09;;;;;;;2.75;1.67;;;16.30;99.90;;;;;;4977677;28;20249;-70
2022/08/06 06:57:43;;;;;;;2.33;1.50;;;16.40;99.90;;;;;;4982820;28;20213;-71
2022/08/06 07:00:10;;;;;;;4.63;1.70;;;16.40;99.90;;;;;;4982831;28;20187;-71
2022/08/06 07:02:40;;;;;;;4.43;2.20;;;16.50;99.90;;;;;;4978633;28;20184;-71
2022/08/06 07:05:08;;;;;;;4.93;1.80;;;16.50;99.90;;;;;;4986026;28;20203;-71
2022/08/06 07:07:37;;;;;;;3.33;1.83;;;16.60;99.90;;;;;;4983989;28;20186;-70
2022/08/06 07:10:05;;;;;;;2.78;1.60;;;16.60;99.90;;;;;;4996841;28;20223;-72
2022/08/06 07:12:34;;;;;;;4.35;1.80;;;16.70;99.90;;;;;;4978693;28;20265;-69
2022/08/06 07:15:08;;;;;;;2.78;1.85;;;16.70;99.90;;;;;;4980882;28;20227;-71
2022/08/06 07:17:36;;;;;;;2.78;1.77;;;16.80;99.90;;;;;;4977500;28;20214;-69
2022/08/06 07:20:07;;;;;;;2.10;1.38;;;16.80;99.90;;;;;;4980323;28;20190;-70
2022/08/06 07:22:38;;;;;;;2.92;1.17;;;16.90;99.90;;;;;;4978973;28;20187;-72
2022/08/06 07:25:09;;;;;;;1.88;1.10;;;16.90;99.90;;;;;;4979286;28;20207;-71
2022/08/06 07:27:39;;;;;;;2.95;1.25;;;17.00;99.90;;;;;;4981770;28;20202;-72
2022/08/06 07:30:08;;;;;;;2.17;1.30;;;17.10;99.90;;;;;;4979391;28;20179;-71
2022/08/06 07:32:37;;;;;;;2.40;1.40;;;17.10;99.90;;;;;;4979276;28;20279;-72
2022/08/06 07:35:06;;;;;;;3.40;1.10;;;17.20;99.90;;;;;;4983865;28;20184;-70
2022/08/06 07:37:33;;;;;;;5.63;2.50;;;17.30;99.90;;;;;;4978578;28;20211;-69
2022/08/06 07:40:00;;;;;;;4.65;2.00;;;17.40;99.90;;;;;;4977686;28;20179;-72
2022/08/06 07:42:28;;;;;;;2.22;1.50;;;17.50;99.90;;;;;;4980094;28;20178;-72
2022/08/06 07:45:00;;;;;;;2.53;1.60;;;17.60;99.90;;;;;;4986288;28;20220;-71
2022/08/06 07:47:34;;;;;;;3.10;1.40;;;17.60;99.90;;;;;;4985590;28;20171;-71
2022/08/06 07:49:59;;;;;;;4.30;1.38;;;17.70;99.90;;;;;;4983283;28;20190;-71
2022/08/06 07:52:26;;;;;;;2.25;1.23;;;17.80;99.90;;;;;;4985082;28;20218;-72
2022/08/06 07:54:56;;;;;;;2.40;1.20;;;17.90;99.90;;;;;;4988918;28;20179;-73
2022/08/06 07:57:25;;;;;;;5.53;1.27;;;18.00;99.90;;;;;;4989626;28;20190;-71
2022/08/06 07:59:51;;;;;;;3.00;1.00;;;18.10;99.90;;;;;;4982816;28;20210;-70
2022/08/06 08:02:17;;;;;;;1.88;1.00;;;18.20;99.90;;;;;;4984539;28;20191;-70
2022/08/06 08:07:31;;;;;;;4.00;1.15;;;18.30;99.90;;;;;;4986255;28;20183;-70
2022/08/06 08:10:00;;;;;;;2.00;1.40;;;18.40;99.90;;;;;;4978068;28;20417;-71
2022/08/06 08:12:30;;;;;;;2.97;1.00;;;18.50;99.90;;;;;;4982168;28;20238;-71
2022/08/06 08:14:56;;;;;;;2.00;1.10;;;18.60;99.90;;;;;;4983739;28;20188;-70
2022/08/06 08:17:22;;;;;;;1.58;1.00;;;18.70;99.90;;;;;;4977992;28;20227;-70
2022/08/06 08:19:50;;;;;;;1.85;1.08;;;18.70;99.90;;;;;;4979398;28;20190;-70
2022/08/06 08:22:21;;;;;;;2.85;1.10;;;18.80;99.90;;;;;;4985721;28;20262;-69
2022/08/06 08:24:47;;;;;;;2.80;1.10;;;18.90;99.90;;;;;;4988538;28;20261;-70
2022/08/06 08:27:14;;;;;;;1.55;0.80;;;19.00;99.90;;;;;;4989303;28;20183;-71
2022/08/06 08:29:44;;;;;;;1.52;0.70;;;19.00;99.90;;;;;;4982466;28;20184;-72
2022/08/06 08:32:09;;;;;;;1.17;0.70;;;19.10;99.90;;;;;;4982618;28;20267;-70
2022/08/06 08:34:37;;;;;;;1.73;0.70;;;19.10;99.90;;;;;;4986065;28;20215;-71
2022/08/06 08:37:04;;;;;;;1.50;0.65;;;19.20;99.90;;;;;;4982377;28;20207;-72
2022/08/06 08:39:30;;;;;;;1.13;0.50;;;19.20;99.90;;;;;;4988183;28;20187;-71
2022/08/06 08:42:06;;;;;;;1.45;0.45;;;19.30;99.90;;;;;;4987686;28;20188;-68
2022/08/06 08:44:33;;;;;;;1.77;0.65;;;19.30;99.90;;;;;;4981477;28;20247;-70
2022/08/06 08:46:59;;;;;;;1.20;0.50;;;19.40;99.90;;;;;;4983443;28;20245;-71
2022/08/06 08:49:33;;;;;;;1.45;0.60;;;19.40;99.90;;;;;;4983507;28;20261;-70
2022/08/06 08:52:02;;;;;;;1.60;0.63;;;19.50;99.90;;;;;;4988059;28;20200;-70
2022/08/06 08:54:35;;;;;;;0.80;0.52;;;19.50;99.90;;;;;;4986279;28;20242;-71
2022/08/06 08:57:05;;;;;;;0.82;0.52;;;19.60;99.90;;;;;;4997807;28;20176;-69
2022/08/06 08:59:32;;;;;;;0.73;0.47;;;19.60;99.90;;;;;;4990814;28;20185;-72
2022/08/06 09:01:58;;;;;;;1.58;0.60;;;19.70;99.90;;;;;;4981356;28;20199;-72
2022/08/06 09:04:29;;;;;;;1.08;0.50;;;19.70;99.90;;;;;;4983254;28;20204;-71
2022/08/06 09:06:58;;;;;;;0.82;0.60;;;19.80;99.90;;;;;;4982677;28;20184;-72
2022/08/06 09:09:25;;;;;;;1.35;0.40;;;19.80;99.90;;;;;;4984059;28;20195;-71
2022/08/06 09:11:52;;;;;;;1.67;0.50;;;19.90;99.90;;;;;;4990943;28;20180;-71
2022/08/06 09:14:22;;;;;;;1.63;0.57;;;20.00;99.90;;;;;;4990686;28;20208;-72
2022/08/06 09:16:49;;;;;;;0.70;0.47;;;20.00;99.90;;;;;;4989635;28;20200;-72
2022/08/06 09:19:15;;;;;;;1.95;0.75;;;20.10;99.90;;;;;;4989961;28;20183;-71
2022/08/06 09:21:43;;;;;;;1.02;0.60;;;20.20;99.90;;;;;;4991969;28;20267;-71
2022/08/06 09:24:09;;;;;;;1.42;0.57;;;20.20;99.90;;;;;;4991365;28;20214;-71
2022/08/06 09:26:35;;;;;;;0.90;0.57;;;20.30;99.90;;;;;;4988699;28;20187;-72
2022/08/06 09:29:01;;;;;;;0.80;0.50;;;20.40;99.90;;;;;;4994853;28;20181;-73
2022/08/06 09:31:27;;;;;;;0.95;0.52;;;20.50;99.90;;;;;;4988435;28;20204;-72
2022/08/06 09:34:03;;;;;;;1.15;0.45;;;20.50;99.90;;;;;;4989473;28;20179;-71
2022/08/06 09:36:43;;;;;;;1.33;0.60;;;20.60;99.90;;;;;;5004273;28;20208;-71
2022/08/06 09:39:09;;;;;;;0.50;0.40;;;20.70;99.90;;;;;;4989354;28;20210;-71
2022/08/06 09:41:46;;;;;;;0.85;0.40;;;20.70;99.90;;;;;;4989101;28;20188;-72
2022/08/06 09:44:14;;;;;;;1.85;0.70;;;20.70;99.90;;;;;;4995894;28;20205;-71
2022/08/06 09:46:41;;;;;;;1.23;0.55;;;20.80;99.90;;;;;;4994050;28;20204;-71
2022/08/06 09:49:08;;;;;;;0.75;0.50;;;20.90;99.90;;;;;;5002354;28;20176;-71
2022/08/06 09:51:34;;;;;;;0.80;0.43;;;21.00;99.90;;;;;;4993973;28;20187;-72
2022/08/06 09:54:02;;;;;;;0.95;0.55;;;21.00;99.90;;;;;;4988239;28;20233;-70
2022/08/06 09:56:30;;;;;;;1.30;0.60;;;21.10;99.90;;;;;;4983512;28;20183;-72
2022/08/06 09:59:02;;;;;;;1.13;0.50;;;21.20;99.90;;;;;;4990181;28;20179;-71
2022/08/06 10:01:37;;;;;;;1.25;0.70;;;21.30;99.90;;;;;;4988074;28;20266;-70
2022/08/06 10:04:05;;;;;;;1.38;0.70;;;21.40;99.90;;;;;;4990496;28;20202;-72
2022/08/06 10:06:32;;;;;;;1.80;1.17;;;21.50;99.90;;;;;;4993185;28;20171;-71
2022/08/06 10:09:20;;;;;;;1.90;1.17;;;21.60;99.90;;;;;;4987859;28;20172;-72
2022/08/06 10:11:48;;;;;;;3.00;1.10;;;21.70;99.90;;;;;;4987159;28;20247;-72
2022/08/06 10:14:25;;;;;;;1.30;0.75;;;21.80;99.90;;;;;;4986256;28;20211;-72
2022/08/06 10:17:21;;;;;;;1.45;0.95;;;22.00;99.90;;;;;;4994229;28;20187;-72
2022/08/06 10:20:06;;;;;;;1.45;0.75;;;22.10;99.90;;;;;;4979932;28;20202;-72
2022/08/06 10:22:32;;;;;;;1.27;0.60;;;22.20;99.90;;;;;;4990520;28;20322;-70
2022/08/06 10:25:02;;;;;;;2.13;0.70;;;22.30;99.90;;;;;;4994530;28;20212;-71
2022/08/06 10:27:35;;;;;;;2.83;0.80;;;22.30;99.90;;;;;;4991315;28;21065;-72
2022/08/06 10:30:09;;;;;;;0.95;0.70;;;22.30;99.90;;;;;;4994821;28;20263;-72
2022/08/06 10:32:51;;;;;;;1.27;0.70;;;22.30;99.90;;;;;;4997889;28;20438;-72
2022/08/06 10:35:20;;;;;;;0.95;0.60;;;22.30;99.90;;;;;;4996849;28;20214;-71
2022/08/06 10:37:51;;;;;;;1.08;0.60;;;22.50;99.90;;;;;;4996823;28;20195;-71
2022/08/06 10:40:22;;;;;;;0.82;0.40;;;22.80;99.90;;;;;;4995426;28;20184;-72
2022/08/06 10:42:51;;;;;;;1.55;0.80;;;23.20;99.90;;;;;;4984209;28;20431;-72
2022/08/06 10:45:20;;;;;;;1.08;0.73;;;23.30;99.90;;;;;;4980186;28;20267;-73
2022/08/06 10:47:47;;;;;;;1.75;0.90;;;23.40;99.90;;;;;;4985882;28;20243;-71
2022/08/06 10:50:13;;;;;;;0.90;0.73;;;23.40;99.90;;;;;;4989683;28;20200;-70
2022/08/06 10:52:41;;;;;;;2.25;0.80;;;23.50;99.90;;;;;;4992471;28;20199;-72
2022/08/06 10:55:11;;;;;;;1.70;0.60;;;23.80;99.90;;;;;;4992186;28;20180;-72
2022/08/06 10:57:40;;;;;;;2.13;0.80;;;24.10;99.90;;;;;;4990655;28;20192;-71
2022/08/06 11:00:06;;;;;;;1.23;0.70;;;24.40;99.90;;;;;;4985437;28;20211;-71
2022/08/06 11:02:58;;;;;;;2.65;0.80;;;24.70;99.90;;;;;;4987793;28;20238;-71
2022/08/06 11:05:27;;;;;;;0.52;0.45;;;25.00;99.90;;;;;;4985367;28;20176;-71
2022/08/06 11:07:56;;;;;;;0.95;0.70;;;25.30;99.90;;;;;;4984844;28;20183;-71
2022/08/06 11:10:54;;;;;;;1.48;0.55;;;25.70;99.50;;;;;;4991560;28;20208;-70
2022/08/06 11:13:38;;;;;;;1.17;0.60;;;25.90;96.30;;;;;;4974963;28;20217;-71
2022/08/06 11:16:04;;;;;;;0.90;0.52;;;26.10;95.70;;;;;;4992259;28;20225;-72
2022/08/06 11:18:29;;;;;;;0.85;0.60;;;26.10;99.20;;;;;;4982556;28;20266;-72
2022/08/06 11:20:59;;;;;;;1.23;0.80;;;26.20;98.70;;;;;;4980571;28;20287;-72
2022/08/06 11:23:32;;;;;;;1.58;0.95;;;26.10;97.90;;;;;;4988370;28;20214;-73
2022/08/06 11:26:07;;;;;;;1.30;0.82;;;26.00;97.10;;;;;;4980068;28;20188;-73
2022/08/06 11:28:32;;;;;;;1.73;0.90;;;25.90;97.20;;;;;;4978600;28;20224;-70
2022/08/06 11:31:03;;;;;;;2.63;1.08;;;25.90;98.10;;;;;;4973583;28;20180;-71
2022/08/06 11:33:35;;;;;;;1.40;0.82;;;26.00;97.90;;;;;;4991307;28;20176;-72
2022/08/06 11:36:04;;;;;;;1.20;0.70;;;26.20;98.40;;;;;;4977104;28;20176;-70
2022/08/06 11:38:42;;;;;;;0.63;0.40;;;26.40;97.80;;;;;;4979005;28;20201;-71
2022/08/06 11:41:16;;;;;;;1.02;0.50;;;26.60;92.80;;;;;;4991604;28;20274;-72
2022/08/06 11:43:53;;;;;;;1.30;0.57;;;26.70;91.90;;;;;;4984042;28;20353;-72
2022/08/06 11:46:33;;;;;;;1.48;0.63;;;26.70;91.50;;;;;;4973429;28;21441;-70
2022/08/06 11:48:58;;;;;;;0.45;0.30;;;26.50;91.60;;;;;;4982181;28;20198;-68
2022/08/06 11:51:58;;;;;;;1.10;0.50;;;26.20;91.90;;;;;;5002908;28;20432;-70
2022/08/06 11:54:36;;;;;;;0.60;0.40;;;26.00;90.00;;;;;;4988496;28;20235;-71
2022/08/06 11:57:01;;;;;;;1.27;0.40;;;25.60;90.10;;;;;;4980781;28;20242;-71
2022/08/06 11:59:27;;;;;;;1.73;0.50;;;25.30;91.90;;;;;;4996717;28;20395;-65
2022/08/06 12:01:53;;;;;;;0.50;0.30;;;25.20;92.90;;;;;;4990400;28;20192;-70
2022/08/06 12:04:38;;;;;;;1.00;0.40;;;25.30;93.50;;;;;;4990965;28;20295;-70
2022/08/06 12:07:25;;;;;;;1.42;0.40;;;25.50;91.30;;;;;;4999716;28;20279;-71
2022/08/06 12:10:01;;;;;;;0.40;0.28;;;25.70;81.40;;;;;;4988870;28;20369;-68
2022/08/06 12:12:33;;;;;;;0.98;0.50;;;25.90;89.50;;;;;;4993929;28;20186;-70
2022/08/06 12:15:04;;;;;;;1.10;0.47;;;26.00;91.50;;;;;;4998801;28;20241;-70
2022/08/06 12:17:30;;;;;;;3.10;0.50;;;26.00;90.50;;;;;;4994495;28;20247;-69
2022/08/06 12:20:02;;;;;;;0.60;0.30;;;25.80;86.50;;;;;;4992533;28;20190;-70
2022/08/06 12:22:29;;;;;;;1.35;0.45;;;25.70;84.50;;;;;;4991570;28;20239;-71
2022/08/06 12:24:58;;;;;;;0.95;0.40;;;25.60;86.60;;;;;;4991759;28;20208;-69
2022/08/06 12:27:33;;;;;;;1.83;0.55;;;25.50;87.30;;;;;;4988937;28;20263;-70
2022/08/06 12:30:01;;;;;;;0.63;0.40;;;25.60;86.70;;;;;;5013792;28;20247;-68
2022/08/06 12:32:26;;;;;;;0.40;0.30;;;25.80;89.10;;;;;;4992126;28;20199;-70
2022/08/06 12:34:53;;;;;;;1.83;0.60;;;26.00;90.30;;;;;;4991668;28;20188;-69
2022/08/06 12:37:37;;;;;;;1.17;0.70;;;26.30;84.10;;;;;;5000201;28;20186;-69
2022/08/06 12:42:54;;;;;;;0.80;0.40;;;26.50;80.50;;;;;;4996660;28;20234;-68
2022/08/06 12:45:23;;;;;;;0.73;0.38;;;26.50;82.70;;;;;;4997959;28;20211;-69
2022/08/06 12:48:05;;;;;;;1.05;0.50;;;26.40;79.70;;;;;;5006905;28;20235;-69
2022/08/06 12:50:33;;;;;;;1.25;0.55;;;26.20;77.20;;;;;;4991297;28;20191;-68
2022/08/06 12:53:15;;;;;;;1.20;0.30;;;26.10;81.60;;;;;;4978773;28;20274;-71
2022/08/06 12:55:49;;;;;;;0.65;0.30;;;26.10;71.70;;;;;;4992391;28;20180;-71
2022/08/06 12:58:21;;;;;;;0.55;0.30;;;26.20;80.20;;;;;;4993326;28;20174;-69
2022/08/06 13:00:54;;;;;;;3.40;0.50;;;26.40;78.90;;;;;;4993000;28;20216;-69
2022/08/06 13:03:23;;;;;;;0.38;0.30;;;26.60;80.20;;;;;;4998360;28;20176;-70
2022/08/06 13:05:49;;;;;;;1.85;0.50;;;26.80;79.60;;;;;;4990812;28;20191;-71
2022/08/06 13:08:15;;;;;;;0.80;0.40;;;26.80;78.70;;;;;;4990217;28;20247;-67
2022/08/06 13:10:50;;;;;;;0.40;0.40;;;26.80;78.10;;;;;;4996004;28;20210;-71
2022/08/06 13:13:17;;;;;;;0.60;0.40;;;26.70;75.10;;;;;;4991502;28;20207;-68
2022/08/06 13:16:02;;;;;;;1.10;0.50;;;26.70;78.40;;;;;;4995084;28;20172;-69